sensor_id;sensor_type;location;lat;lon;timestamp;P1;durP1;ratioP1;P2;durP2;ratioP2
13356;SDS011;6747;56.456;-3.120;2023-09-19T00:00:33;1.30;;;0.90;;
13356;SDS011;6747;56.456;-3.120;2023-09-19T00:03:01;3.03;;;1.10;;
13356;SDS011;6747;56.456;-3.120;2023-09-19T00:05:34;2.17;;;1.30;;
13356;SDS011;6747;56.456;-3.120;2023-09-19T00:08:03;4.05;;;1.02;;
13356;SDS011;6747;56.456;-3.120;2023-09-19T00:10:31;2.65;;;1.10;;
13356;SDS011;6747;56.456;-3.120;2023-09-19T00:13:00;2.33;;;0.80;;
13356;SDS011;6747;56.456;-3.120;2023-09-19T00:15:31;2.33;;;1.08;;
13356;SDS011;6747;56.456;-3.120;2023-09-19T00:17:58;3.88;;;1.27;;
13356;SDS011;6747;56.456;-3.120;2023-09-19T00:20:26;3.35;;;1.00;;
13356;SDS011;6747;56.456;-3.120;2023-09-19T00:22:57;2.35;;;1.23;;
13356;SDS011;6747;56.456;-3.120;2023-09-19T00:25:30;3.22;;;1.33;;
13356;SDS011;6747;56.456;-3.120;2023-09-19T00:28:00;3.72;;;1.10;;
13356;SDS011;6747;56.456;-3.120;2023-09-19T00:30:29;4.43;;;1.08;;
13356;SDS011;6747;56.456;-3.120;2023-09-19T00:32:56;1.52;;;0.90;;
13356;SDS011;6747;56.456;-3.120;2023-09-19T00:35:24;1.90;;;1.40;;
13356;SDS011;6747;56.456;-3.120;2023-09-19T00:37:52;3.13;;;0.95;;
13356;SDS011;6747;56.456;-3.120;2023-09-19T00:40:22;2.42;;;0.88;;
13356;SDS011;6747;56.456;-3.120;2023-09-19T00:42:51;3.90;;;1.38;;
13356;SDS011;6747;56.456;-3.120;2023-09-19T00:45:19;2.55;;;1.38;;
13356;SDS011;6747;56.456;-3.120;2023-09-19T00:47:47;3.50;;;1.13;;
13356;SDS011;6747;56.456;-3.120;2023-09-19T00:50:16;2.35;;;0.93;;
13356;SDS011;6747;56.456;-3.120;2023-09-19T00:52:44;2.92;;;0.93;;
13356;SDS011;6747;56.456;-3.120;2023-09-19T00:55:15;1.98;;;0.98;;
13356;SDS011;6747;56.456;-3.120;2023-09-19T00:57:46;1.88;;;1.15;;
13356;SDS011;6747;56.456;-3.120;2023-09-19T01:00:15;1.45;;;0.90;;
13356;SDS011;6747;56.456;-3.120;2023-09-19T01:02:45;3.20;;;1.00;;
13356;SDS011;6747;56.456;-3.120;2023-09-19T01:05:12;2.17;;;0.93;;
13356;SDS011;6747;56.456;-3.120;2023-09-19T01:07:40;2.70;;;1.13;;
13356;SDS011;6747;56.456;-3.120;2023-09-19T01:10:11;3.53;;;0.98;;
13356;SDS011;6747;56.456;-3.120;2023-09-19T01:12:43;1.52;;;1.02;;
13356;SDS011;6747;56.456;-3.120;2023-09-19T01:15:16;3.45;;;0.85;;
13356;SDS011;6747;56.456;-3.120;2023-09-19T01:17:48;1.25;;;1.02;;
13356;SDS011;6747;56.456;-3.120;2023-09-19T01:20:21;3.90;;;1.25;;
13356;SDS011;6747;56.456;-3.120;2023-09-19T01:22:56;4.68;;;1.30;;
13356;SDS011;6747;56.456;-3.120;2023-09-19T01:31:03;2.97;;;0.93;;
13356;SDS011;6747;56.456;-3.120;2023-09-19T01:36:16;4.00;;;1.13;;
13356;SDS011;6747;56.456;-3.120;2023-09-19T01:38:44;3.85;;;1.13;;
13356;SDS011;6747;56.456;-3.120;2023-09-19T01:41:12;3.28;;;1.50;;
13356;SDS011;6747;56.456;-3.120;2023-09-19T01:43:45;3.83;;;1.10;;
13356;SDS011;6747;56.456;-3.120;2023-09-19T01:46:17;4.25;;;1.70;;
13356;SDS011;6747;56.456;-3.120;2023-09-19T01:48:46;2.97;;;1.23;;
13356;SDS011;6747;56.456;-3.120;2023-09-19T01:51:18;3.13;;;1.58;;
13356;SDS011;6747;56.456;-3.120;2023-09-19T01:53:50;3.22;;;1.42;;
13356;SDS011;6747;56.456;-3.120;2023-09-19T01:56:21;5.00;;;1.13;;
13356;SDS011;6747;56.456;-3.120;2023-09-19T01:58:51;3.05;;;1.20;;
13356;SDS011;6747;56.456;-3.120;2023-09-19T02:01:22;2.53;;;1.55;;
13356;SDS011;6747;56.456;-3.120;2023-09-19T02:03:50;3.25;;;1.23;;
13356;SDS011;6747;56.456;-3.120;2023-09-19T02:06:18;5.30;;;1.58;;
13356;SDS011;6747;56.456;-3.120;2023-09-19T02:08:46;1.98;;;1.45;;
13356;SDS011;6747;56.456;-3.120;2023-09-19T02:11:14;4.05;;;1.42;;
13356;SDS011;6747;56.456;-3.120;2023-09-19T02:13:41;2.35;;;1.27;;
13356;SDS011;6747;56.456;-3.120;2023-09-19T02:16:09;4.78;;;1.42;;
13356;SDS011;6747;56.456;-3.120;2023-09-19T02:18:39;3.45;;;1.65;;
13356;SDS011;6747;56.456;-3.120;2023-09-19T02:21:06;1.92;;;1.15;;
13356;SDS011;6747;56.456;-3.120;2023-09-19T02:23:35;3.88;;;1.10;;
13356;SDS011;6747;56.456;-3.120;2023-09-19T02:26:03;2.42;;;1.23;;
13356;SDS011;6747;56.456;-3.120;2023-09-19T02:28:31;2.50;;;1.40;;
13356;SDS011;6747;56.456;-3.120;2023-09-19T02:30:59;1.40;;;1.13;;
13356;SDS011;6747;56.456;-3.120;2023-09-19T02:33:26;2.55;;;1.40;;
13356;SDS011;6747;56.456;-3.120;2023-09-19T02:35:59;3.03;;;1.58;;
13356;SDS011;6747;56.456;-3.120;2023-09-19T02:38:29;3.83;;;1.38;;
13356;SDS011;6747;56.456;-3.120;2023-09-19T02:40:56;2.80;;;1.23;;
13356;SDS011;6747;56.456;-3.120;2023-09-19T02:43:24;4.65;;;1.27;;
13356;SDS011;6747;56.456;-3.120;2023-09-19T02:45:52;2.42;;;1.10;;
13356;SDS011;6747;56.456;-3.120;2023-09-19T02:48:20;3.67;;;1.48;;
13356;SDS011;6747;56.456;-3.120;2023-09-19T02:50:49;5.10;;;1.27;;
13356;SDS011;6747;56.456;-3.120;2023-09-19T02:53:18;1.85;;;1.17;;
13356;SDS011;6747;56.456;-3.120;2023-09-19T02:55:46;2.50;;;1.40;;
13356;SDS011;6747;56.456;-3.120;2023-09-19T02:58:13;4.47;;;1.45;;
13356;SDS011;6747;56.456;-3.120;2023-09-19T03:00:41;3.17;;;1.50;;
13356;SDS011;6747;56.456;-3.120;2023-09-19T03:03:12;3.35;;;1.30;;
13356;SDS011;6747;56.456;-3.120;2023-09-19T03:05:41;5.22;;;1.77;;
13356;SDS011;6747;56.456;-3.120;2023-09-19T03:08:12;2.60;;;1.42;;
13356;SDS011;6747;56.456;-3.120;2023-09-19T03:10:44;2.58;;;1.30;;
13356;SDS011;6747;56.456;-3.120;2023-09-19T03:13:13;3.35;;;1.65;;
13356;SDS011;6747;56.456;-3.120;2023-09-19T03:15:41;4.30;;;1.75;;
13356;SDS011;6747;56.456;-3.120;2023-09-19T03:18:12;4.05;;;2.00;;
13356;SDS011;6747;56.456;-3.120;2023-09-19T03:20:39;2.05;;;1.42;;
13356;SDS011;6747;56.456;-3.120;2023-09-19T03:23:07;2.13;;;1.13;;
13356;SDS011;6747;56.456;-3.120;2023-09-19T03:25:35;4.30;;;1.60;;
13356;SDS011;6747;56.456;-3.120;2023-09-19T03:28:04;3.55;;;1.58;;
13356;SDS011;6747;56.456;-3.120;2023-09-19T03:30:32;3.40;;;1.60;;
13356;SDS011;6747;56.456;-3.120;2023-09-19T03:33:00;3.80;;;1.77;;
13356;SDS011;6747;56.456;-3.120;2023-09-19T03:35:28;3.38;;;1.92;;
13356;SDS011;6747;56.456;-3.120;2023-09-19T03:37:56;4.40;;;1.67;;
13356;SDS011;6747;56.456;-3.120;2023-09-19T03:40:24;3.67;;;2.13;;
13356;SDS011;6747;56.456;-3.120;2023-09-19T03:42:51;2.42;;;1.45;;
13356;SDS011;6747;56.456;-3.120;2023-09-19T03:45:20;4.97;;;1.70;;
13356;SDS011;6747;56.456;-3.120;2023-09-19T03:47:48;2.70;;;1.50;;
13356;SDS011;6747;56.456;-3.120;2023-09-19T03:50:16;3.95;;;1.50;;
13356;SDS011;6747;56.456;-3.120;2023-09-19T03:52:43;5.55;;;1.65;;
13356;SDS011;6747;56.456;-3.120;2023-09-19T03:55:11;2.10;;;1.42;;
13356;SDS011;6747;56.456;-3.120;2023-09-19T03:57:38;5.32;;;1.83;;
13356;SDS011;6747;56.456;-3.120;2023-09-19T04:00:07;3.80;;;1.63;;
13356;SDS011;6747;56.456;-3.120;2023-09-19T04:02:38;2.90;;;1.60;;
13356;SDS011;6747;56.456;-3.120;2023-09-19T04:05:06;2.47;;;1.40;;
13356;SDS011;6747;56.456;-3.120;2023-09-19T04:07:34;4.35;;;1.65;;
13356;SDS011;6747;56.456;-3.120;2023-09-19T04:10:02;2.13;;;1.30;;
13356;SDS011;6747;56.456;-3.120;2023-09-19T04:12:29;1.60;;;1.45;;
13356;SDS011;6747;56.456;-3.120;2023-09-19T04:14:57;2.95;;;1.50;;
13356;SDS011;6747;56.456;-3.120;2023-09-19T04:17:25;1.98;;;1.45;;
13356;SDS011;6747;56.456;-3.120;2023-09-19T04:19:54;4.03;;;1.42;;
13356;SDS011;6747;56.456;-3.120;2023-09-19T04:22:22;4.00;;;1.38;;
13356;SDS011;6747;56.456;-3.120;2023-09-19T04:24:49;3.65;;;1.60;;
13356;SDS011;6747;56.456;-3.120;2023-09-19T04:27:17;1.80;;;1.55;;
13356;SDS011;6747;56.456;-3.120;2023-09-19T04:29:45;4.57;;;1.60;;
13356;SDS011;6747;56.456;-3.120;2023-09-19T04:32:12;2.47;;;1.25;;
13356;SDS011;6747;56.456;-3.120;2023-09-19T04:34:42;3.95;;;1.48;;
13356;SDS011;6747;56.456;-3.120;2023-09-19T04:37:11;1.77;;;1.40;;
13356;SDS011;6747;56.456;-3.120;2023-09-19T04:39:40;5.35;;;1.65;;
13356;SDS011;6747;56.456;-3.120;2023-09-19T04:42:08;2.38;;;1.30;;
13356;SDS011;6747;56.456;-3.120;2023-09-19T04:44:40;2.63;;;1.20;;
13356;SDS011;6747;56.456;-3.120;2023-09-19T04:47:08;3.33;;;1.20;;
13356;SDS011;6747;56.456;-3.120;2023-09-19T04:49:37;4.32;;;1.60;;
13356;SDS011;6747;56.456;-3.120;2023-09-19T04:52:06;2.85;;;1.30;;
13356;SDS011;6747;56.456;-3.120;2023-09-19T04:54:34;2.55;;;1.05;;
13356;SDS011;6747;56.456;-3.120;2023-09-19T04:57:03;2.78;;;0.98;;
13356;SDS011;6747;56.456;-3.120;2023-09-19T04:59:31;2.85;;;1.13;;
13356;SDS011;6747;56.456;-3.120;2023-09-19T05:01:58;4.22;;;1.17;;
13356;SDS011;6747;56.456;-3.120;2023-09-19T05:04:26;2.53;;;1.13;;
13356;SDS011;6747;56.456;-3.120;2023-09-19T05:06:53;4.30;;;1.40;;
13356;SDS011;6747;56.456;-3.120;2023-09-19T05:09:21;1.88;;;1.23;;
13356;SDS011;6747;56.456;-3.120;2023-09-19T05:11:50;1.52;;;0.80;;
13356;SDS011;6747;56.456;-3.120;2023-09-19T05:14:18;1.77;;;1.05;;
13356;SDS011;6747;56.456;-3.120;2023-09-19T05:16:46;2.50;;;1.10;;
13356;SDS011;6747;56.456;-3.120;2023-09-19T05:19:14;2.63;;;1.10;;
13356;SDS011;6747;56.456;-3.120;2023-09-19T05:21:42;1.58;;;0.90;;
13356;SDS011;6747;56.456;-3.120;2023-09-19T05:24:09;4.75;;;1.38;;
13356;SDS011;6747;56.456;-3.120;2023-09-19T05:26:37;2.53;;;1.13;;
13356;SDS011;6747;56.456;-3.120;2023-09-19T05:29:06;3.67;;;1.25;;
13356;SDS011;6747;56.456;-3.120;2023-09-19T05:31:34;1.42;;;0.93;;
13356;SDS011;6747;56.456;-3.120;2023-09-19T05:34:06;0.98;;;0.80;;
13356;SDS011;6747;56.456;-3.120;2023-09-19T05:36:34;2.03;;;0.80;;
13356;SDS011;6747;56.456;-3.120;2023-09-19T05:39:01;1.92;;;0.82;;
13356;SDS011;6747;56.456;-3.120;2023-09-19T05:41:30;1.15;;;0.63;;
13356;SDS011;6747;56.456;-3.120;2023-09-19T05:43:59;0.60;;;0.60;;
13356;SDS011;6747;56.456;-3.120;2023-09-19T05:46:29;1.77;;;0.95;;
13356;SDS011;6747;56.456;-3.120;2023-09-19T05:48:56;2.75;;;0.88;;
13356;SDS011;6747;56.456;-3.120;2023-09-19T05:51:24;0.80;;;0.55;;
13356;SDS011;6747;56.456;-3.120;2023-09-19T05:53:53;1.95;;;0.82;;
13356;SDS011;6747;56.456;-3.120;2023-09-19T05:56:21;2.55;;;0.75;;
13356;SDS011;6747;56.456;-3.120;2023-09-19T05:58:48;2.67;;;0.80;;
13356;SDS011;6747;56.456;-3.120;2023-09-19T06:01:18;2.28;;;0.90;;
13356;SDS011;6747;56.456;-3.120;2023-09-19T06:03:47;1.55;;;0.88;;
13356;SDS011;6747;56.456;-3.120;2023-09-19T06:06:16;1.38;;;0.82;;
13356;SDS011;6747;56.456;-3.120;2023-09-19T06:08:44;2.03;;;1.10;;
13356;SDS011;6747;56.456;-3.120;2023-09-19T06:11:11;2.03;;;0.80;;
13356;SDS011;6747;56.456;-3.120;2023-09-19T06:13:39;1.35;;;0.70;;
13356;SDS011;6747;56.456;-3.120;2023-09-19T06:16:07;1.70;;;1.10;;
13356;SDS011;6747;56.456;-3.120;2023-09-19T06:18:34;1.42;;;0.80;;
13356;SDS011;6747;56.456;-3.120;2023-09-19T06:21:05;0.98;;;0.60;;
13356;SDS011;6747;56.456;-3.120;2023-09-19T06:23:33;1.55;;;1.02;;
13356;SDS011;6747;56.456;-3.120;2023-09-19T06:26:00;0.90;;;0.90;;
13356;SDS011;6747;56.456;-3.120;2023-09-19T06:28:28;1.85;;;1.20;;
13356;SDS011;6747;56.456;-3.120;2023-09-19T06:30:56;1.80;;;0.70;;
13356;SDS011;6747;56.456;-3.120;2023-09-19T06:33:24;0.50;;;0.50;;
13356;SDS011;6747;56.456;-3.120;2023-09-19T06:35:52;0.68;;;0.50;;
13356;SDS011;6747;56.456;-3.120;2023-09-19T06:38:26;2.50;;;0.70;;
13356;SDS011;6747;56.456;-3.120;2023-09-19T06:40:53;1.15;;;0.68;;
13356;SDS011;6747;56.456;-3.120;2023-09-19T06:43:22;1.30;;;0.50;;
13356;SDS011;6747;56.456;-3.120;2023-09-19T06:45:50;2.30;;;0.65;;
13356;SDS011;6747;56.456;-3.120;2023-09-19T06:48:19;3.00;;;1.30;;
13356;SDS011;6747;56.456;-3.120;2023-09-19T06:50:47;2.13;;;0.75;;
13356;SDS011;6747;56.456;-3.120;2023-09-19T06:53:15;3.33;;;1.10;;
13356;SDS011;6747;56.456;-3.120;2023-09-19T06:55:44;2.95;;;1.00;;
13356;SDS011;6747;56.456;-3.120;2023-09-19T06:58:13;0.80;;;0.70;;
13356;SDS011;6747;56.456;-3.120;2023-09-19T07:00:42;1.15;;;0.90;;
13356;SDS011;6747;56.456;-3.120;2023-09-19T07:03:10;1.40;;;0.70;;
13356;SDS011;6747;56.456;-3.120;2023-09-19T07:05:38;1.02;;;0.60;;
13356;SDS011;6747;56.456;-3.120;2023-09-19T07:08:06;2.13;;;0.85;;
13356;SDS011;6747;56.456;-3.120;2023-09-19T07:10:34;2.08;;;1.05;;
13356;SDS011;6747;56.456;-3.120;2023-09-19T07:13:04;1.92;;;1.08;;
13356;SDS011;6747;56.456;-3.120;2023-09-19T07:15:34;1.40;;;0.93;;
13356;SDS011;6747;56.456;-3.120;2023-09-19T07:18:04;1.85;;;1.10;;
13356;SDS011;6747;56.456;-3.120;2023-09-19T07:20:36;1.67;;;0.90;;
13356;SDS011;6747;56.456;-3.120;2023-09-19T07:23:04;1.05;;;0.95;;
13356;SDS011;6747;56.456;-3.120;2023-09-19T07:25:31;1.88;;;0.93;;
13356;SDS011;6747;56.456;-3.120;2023-09-19T07:27:59;3.10;;;1.17;;
13356;SDS011;6747;56.456;-3.120;2023-09-19T07:30:29;1.23;;;0.90;;
13356;SDS011;6747;56.456;-3.120;2023-09-19T07:32:56;1.83;;;1.30;;
13356;SDS011;6747;56.456;-3.120;2023-09-19T07:35:24;1.40;;;1.30;;
13356;SDS011;6747;56.456;-3.120;2023-09-19T07:37:52;2.25;;;1.65;;
13356;SDS011;6747;56.456;-3.120;2023-09-19T07:40:21;2.25;;;1.20;;
13356;SDS011;6747;56.456;-3.120;2023-09-19T07:42:49;1.52;;;1.42;;
13356;SDS011;6747;56.456;-3.120;2023-09-19T07:45:17;2.58;;;1.80;;
13356;SDS011;6747;56.456;-3.120;2023-09-19T07:47:46;1.80;;;1.70;;
13356;SDS011;6747;56.456;-3.120;2023-09-19T07:50:14;4.97;;;1.90;;
13356;SDS011;6747;56.456;-3.120;2023-09-19T07:52:43;2.60;;;1.70;;
13356;SDS011;6747;56.456;-3.120;2023-09-19T07:55:11;3.17;;;2.08;;
13356;SDS011;6747;56.456;-3.120;2023-09-19T07:57:42;7.03;;;2.38;;
13356;SDS011;6747;56.456;-3.120;2023-09-19T08:00:12;3.25;;;2.00;;
13356;SDS011;6747;56.456;-3.120;2023-09-19T08:02:40;3.60;;;2.10;;
13356;SDS011;6747;56.456;-3.120;2023-09-19T08:05:10;3.47;;;2.28;;
13356;SDS011;6747;56.456;-3.120;2023-09-19T08:07:40;6.68;;;2.53;;
13356;SDS011;6747;56.456;-3.120;2023-09-19T08:10:09;4.43;;;2.40;;
13356;SDS011;6747;56.456;-3.120;2023-09-19T08:12:38;4.45;;;2.25;;
13356;SDS011;6747;56.456;-3.120;2023-09-19T08:15:12;3.97;;;2.20;;
13356;SDS011;6747;56.456;-3.120;2023-09-19T08:17:40;3.45;;;2.05;;
13356;SDS011;6747;56.456;-3.120;2023-09-19T08:20:12;3.17;;;2.13;;
13356;SDS011;6747;56.456;-3.120;2023-09-19T08:22:42;4.30;;;2.38;;
13356;SDS011;6747;56.456;-3.120;2023-09-19T08:25:11;3.45;;;2.55;;
13356;SDS011;6747;56.456;-3.120;2023-09-19T08:27:39;3.30;;;2.58;;
13356;SDS011;6747;56.456;-3.120;2023-09-19T08:30:09;3.72;;;2.20;;
13356;SDS011;6747;56.456;-3.120;2023-09-19T08:32:37;4.50;;;2.40;;
13356;SDS011;6747;56.456;-3.120;2023-09-19T08:35:07;5.20;;;2.50;;
13356;SDS011;6747;56.456;-3.120;2023-09-19T08:37:37;2.53;;;2.03;;
13356;SDS011;6747;56.456;-3.120;2023-09-19T08:40:05;4.32;;;2.50;;
13356;SDS011;6747;56.456;-3.120;2023-09-19T08:42:47;7.10;;;2.75;;
13356;SDS011;6747;56.456;-3.120;2023-09-19T08:45:15;3.67;;;2.55;;
13356;SDS011;6747;56.456;-3.120;2023-09-19T08:47:45;5.45;;;2.13;;
13356;SDS011;6747;56.456;-3.120;2023-09-19T08:50:17;2.38;;;2.00;;
13356;SDS011;6747;56.456;-3.120;2023-09-19T08:52:47;4.85;;;2.42;;
13356;SDS011;6747;56.456;-3.120;2023-09-19T08:55:19;4.30;;;2.40;;
13356;SDS011;6747;56.456;-3.120;2023-09-19T08:57:49;4.05;;;2.50;;
13356;SDS011;6747;56.456;-3.120;2023-09-19T09:00:16;4.53;;;2.60;;
13356;SDS011;6747;56.456;-3.120;2023-09-19T09:02:46;4.68;;;2.55;;
13356;SDS011;6747;56.456;-3.120;2023-09-19T09:05:14;3.03;;;2.45;;
13356;SDS011;6747;56.456;-3.120;2023-09-19T09:07:49;4.18;;;2.47;;
13356;SDS011;6747;56.456;-3.120;2023-09-19T09:10:17;3.05;;;2.17;;
13356;SDS011;6747;56.456;-3.120;2023-09-19T09:12:47;4.63;;;2.35;;
13356;SDS011;6747;56.456;-3.120;2023-09-19T09:15:15;4.25;;;2.50;;
13356;SDS011;6747;56.456;-3.120;2023-09-19T09:17:46;4.10;;;2.40;;
13356;SDS011;6747;56.456;-3.120;2023-09-19T09:20:15;3.75;;;2.22;;
13356;SDS011;6747;56.456;-3.120;2023-09-19T09:22:54;6.53;;;2.72;;
13356;SDS011;6747;56.456;-3.120;2023-09-19T09:25:46;4.18;;;2.55;;
13356;SDS011;6747;56.456;-3.120;2023-09-19T09:28:18;3.00;;;2.28;;
13356;SDS011;6747;56.456;-3.120;2023-09-19T09:30:46;5.65;;;2.20;;
13356;SDS011;6747;56.456;-3.120;2023-09-19T09:33:14;2.60;;;2.00;;
13356;SDS011;6747;56.456;-3.120;2023-09-19T09:35:51;3.03;;;2.25;;
13356;SDS011;6747;56.456;-3.120;2023-09-19T09:38:20;2.97;;;2.10;;
13356;SDS011;6747;56.456;-3.120;2023-09-19T09:40:51;3.42;;;1.90;;
13356;SDS011;6747;56.456;-3.120;2023-09-19T09:43:25;5.00;;;2.70;;
13356;SDS011;6747;56.456;-3.120;2023-09-19T09:46:06;3.05;;;2.50;;
13356;SDS011;6747;56.456;-3.120;2023-09-19T09:48:44;4.75;;;2.13;;
13356;SDS011;6747;56.456;-3.120;2023-09-19T09:51:29;4.80;;;1.90;;
13356;SDS011;6747;56.456;-3.120;2023-09-19T09:54:10;4.38;;;2.20;;
13356;SDS011;6747;56.456;-3.120;2023-09-19T09:56:51;2.28;;;1.98;;
13356;SDS011;6747;56.456;-3.120;2023-09-19T09:59:19;2.25;;;2.00;;
13356;SDS011;6747;56.456;-3.120;2023-09-19T10:01:49;2.47;;;2.20;;
13356;SDS011;6747;56.456;-3.120;2023-09-19T10:04:26;3.50;;;2.30;;
13356;SDS011;6747;56.456;-3.120;2023-09-19T10:06:56;4.97;;;2.33;;
13356;SDS011;6747;56.456;-3.120;2023-09-19T10:09:31;3.20;;;2.20;;
13356;SDS011;6747;56.456;-3.120;2023-09-19T10:12:12;3.05;;;2.28;;
13356;SDS011;6747;56.456;-3.120;2023-09-19T10:14:40;3.20;;;2.20;;
13356;SDS011;6747;56.456;-3.120;2023-09-19T10:17:09;4.70;;;2.13;;
13356;SDS011;6747;56.456;-3.120;2023-09-19T10:19:37;4.78;;;2.13;;
13356;SDS011;6747;56.456;-3.120;2023-09-19T10:22:11;2.75;;;2.08;;
13356;SDS011;6747;56.456;-3.120;2023-09-19T10:24:43;2.45;;;1.77;;
13356;SDS011;6747;56.456;-3.120;2023-09-19T10:27:11;2.03;;;1.83;;
13356;SDS011;6747;56.456;-3.120;2023-09-19T10:29:44;2.10;;;1.85;;
13356;SDS011;6747;56.456;-3.120;2023-09-19T10:32:15;4.82;;;1.92;;
13356;SDS011;6747;56.456;-3.120;2023-09-19T10:34:44;5.18;;;1.90;;
13356;SDS011;6747;56.456;-3.120;2023-09-19T10:37:14;2.85;;;1.90;;
13356;SDS011;6747;56.456;-3.120;2023-09-19T10:39:46;2.15;;;1.80;;
13356;SDS011;6747;56.456;-3.120;2023-09-19T10:42:16;3.05;;;1.90;;
13356;SDS011;6747;56.456;-3.120;2023-09-19T10:44:45;2.17;;;1.70;;
13356;SDS011;6747;56.456;-3.120;2023-09-19T10:47:14;3.25;;;1.70;;
13356;SDS011;6747;56.456;-3.120;2023-09-19T10:49:44;2.65;;;1.58;;
13356;SDS011;6747;56.456;-3.120;2023-09-19T10:52:12;2.45;;;1.23;;
13356;SDS011;6747;56.456;-3.120;2023-09-19T10:54:45;2.42;;;1.60;;
13356;SDS011;6747;56.456;-3.120;2023-09-19T10:57:19;2.55;;;1.60;;
13356;SDS011;6747;56.456;-3.120;2023-09-19T11:00:01;2.17;;;1.48;;
13356;SDS011;6747;56.456;-3.120;2023-09-19T11:05:31;1.75;;;1.20;;
13356;SDS011;6747;56.456;-3.120;2023-09-19T11:07:59;1.88;;;1.20;;
13356;SDS011;6747;56.456;-3.120;2023-09-19T11:10:44;3.83;;;1.20;;
13356;SDS011;6747;56.456;-3.120;2023-09-19T11:13:24;1.30;;;1.20;;
13356;SDS011;6747;56.456;-3.120;2023-09-19T11:18:56;0.93;;;0.90;;
13356;SDS011;6747;56.456;-3.120;2023-09-19T11:21:49;1.70;;;1.25;;
13356;SDS011;6747;56.456;-3.120;2023-09-19T11:24:29;1.95;;;1.00;;
13356;SDS011;6747;56.456;-3.120;2023-09-19T11:27:11;2.40;;;0.90;;
13356;SDS011;6747;56.456;-3.120;2023-09-19T11:29:40;1.08;;;1.00;;
13356;SDS011;6747;56.456;-3.120;2023-09-19T11:32:08;2.17;;;0.95;;
13356;SDS011;6747;56.456;-3.120;2023-09-19T11:34:42;1.50;;;1.08;;
13356;SDS011;6747;56.456;-3.120;2023-09-19T11:40:05;1.30;;;0.73;;
13356;SDS011;6747;56.456;-3.120;2023-09-19T11:42:43;1.33;;;1.20;;
13356;SDS011;6747;56.456;-3.120;2023-09-19T11:47:58;1.20;;;0.90;;
13356;SDS011;6747;56.456;-3.120;2023-09-19T11:50:27;1.20;;;0.77;;
13356;SDS011;6747;56.456;-3.120;2023-09-19T11:52:55;1.10;;;0.70;;
13356;SDS011;6747;56.456;-3.120;2023-09-19T11:55:22;2.00;;;0.73;;
13356;SDS011;6747;56.456;-3.120;2023-09-19T11:57:54;1.38;;;0.80;;
13356;SDS011;6747;56.456;-3.120;2023-09-19T12:00:22;0.90;;;0.90;;
13356;SDS011;6747;56.456;-3.120;2023-09-19T12:02:50;1.02;;;0.93;;
13356;SDS011;6747;56.456;-3.120;2023-09-19T12:05:30;0.98;;;0.82;;
13356;SDS011;6747;56.456;-3.120;2023-09-19T12:07:58;0.80;;;0.80;;
13356;SDS011;6747;56.456;-3.120;2023-09-19T12:10:25;1.42;;;0.88;;
13356;SDS011;6747;56.456;-3.120;2023-09-19T12:12:54;1.20;;;1.10;;
13356;SDS011;6747;56.456;-3.120;2023-09-19T12:15:25;0.75;;;0.75;;
13356;SDS011;6747;56.456;-3.120;2023-09-19T12:17:54;0.98;;;0.65;;
13356;SDS011;6747;56.456;-3.120;2023-09-19T12:20:21;0.63;;;0.63;;
13356;SDS011;6747;56.456;-3.120;2023-09-19T12:22:50;0.80;;;0.80;;
13356;SDS011;6747;56.456;-3.120;2023-09-19T12:25:18;0.98;;;0.98;;
13356;SDS011;6747;56.456;-3.120;2023-09-19T12:27:46;0.82;;;0.82;;
13356;SDS011;6747;56.456;-3.120;2023-09-19T12:30:14;0.88;;;0.70;;
13356;SDS011;6747;56.456;-3.120;2023-09-19T12:32:44;0.68;;;0.43;;
13356;SDS011;6747;56.456;-3.120;2023-09-19T12:35:26;1.23;;;0.60;;
13356;SDS011;6747;56.456;-3.120;2023-09-19T12:37:56;0.60;;;0.50;;
13356;SDS011;6747;56.456;-3.120;2023-09-19T12:40:24;1.42;;;0.70;;
13356;SDS011;6747;56.456;-3.120;2023-09-19T12:42:53;1.40;;;0.80;;
13356;SDS011;6747;56.456;-3.120;2023-09-19T12:45:21;0.65;;;0.65;;
13356;SDS011;6747;56.456;-3.120;2023-09-19T12:50:34;1.17;;;1.10;;
13356;SDS011;6747;56.456;-3.120;2023-09-19T12:53:04;0.70;;;0.70;;
13356;SDS011;6747;56.456;-3.120;2023-09-19T12:55:34;1.00;;;0.90;;
13356;SDS011;6747;56.456;-3.120;2023-09-19T12:58:07;1.35;;;0.90;;
13356;SDS011;6747;56.456;-3.120;2023-09-19T13:00:36;1.17;;;1.10;;
13356;SDS011;6747;56.456;-3.120;2023-09-19T13:05:53;1.48;;;1.13;;
13356;SDS011;6747;56.456;-3.120;2023-09-19T13:08:28;1.48;;;1.20;;
13356;SDS011;6747;56.456;-3.120;2023-09-19T13:11:03;1.45;;;1.08;;
13356;SDS011;6747;56.456;-3.120;2023-09-19T13:13:32;1.58;;;1.10;;
13356;SDS011;6747;56.456;-3.120;2023-09-19T13:16:01;1.95;;;1.38;;
13356;SDS011;6747;56.456;-3.120;2023-09-19T13:18:29;1.13;;;0.95;;
13356;SDS011;6747;56.456;-3.120;2023-09-19T13:21:07;2.03;;;1.15;;
13356;SDS011;6747;56.456;-3.120;2023-09-19T13:23:38;2.75;;;1.35;;
13356;SDS011;6747;56.456;-3.120;2023-09-19T13:26:07;2.17;;;1.00;;
13356;SDS011;6747;56.456;-3.120;2023-09-19T13:28:35;1.98;;;1.25;;
13356;SDS011;6747;56.456;-3.120;2023-09-19T13:31:02;1.73;;;1.27;;
13356;SDS011;6747;56.456;-3.120;2023-09-19T13:33:30;1.13;;;0.85;;
13356;SDS011;6747;56.456;-3.120;2023-09-19T13:35:58;1.10;;;1.00;;
13356;SDS011;6747;56.456;-3.120;2023-09-19T13:38:26;1.50;;;1.08;;
13356;SDS011;6747;56.456;-3.120;2023-09-19T13:40:55;1.50;;;0.80;;
13356;SDS011;6747;56.456;-3.120;2023-09-19T13:43:22;1.00;;;0.90;;
13356;SDS011;6747;56.456;-3.120;2023-09-19T13:45:50;0.77;;;0.70;;
13356;SDS011;6747;56.456;-3.120;2023-09-19T13:48:18;1.10;;;0.70;;
13356;SDS011;6747;56.456;-3.120;2023-09-19T13:50:47;1.20;;;0.65;;
13356;SDS011;6747;56.456;-3.120;2023-09-19T13:53:15;1.63;;;0.73;;
13356;SDS011;6747;56.456;-3.120;2023-09-19T13:55:43;1.10;;;1.00;;
13356;SDS011;6747;56.456;-3.120;2023-09-19T13:58:12;0.77;;;0.77;;
13356;SDS011;6747;56.456;-3.120;2023-09-19T14:00:39;1.33;;;1.00;;
13356;SDS011;6747;56.456;-3.120;2023-09-19T14:03:07;3.38;;;1.17;;
13356;SDS011;6747;56.456;-3.120;2023-09-19T14:05:35;2.38;;;1.25;;
13356;SDS011;6747;56.456;-3.120;2023-09-19T14:08:03;3.20;;;1.23;;
13356;SDS011;6747;56.456;-3.120;2023-09-19T14:10:31;1.10;;;1.08;;
13356;SDS011;6747;56.456;-3.120;2023-09-19T14:13:00;2.13;;;1.40;;
13356;SDS011;6747;56.456;-3.120;2023-09-19T14:15:29;1.35;;;1.20;;
13356;SDS011;6747;56.456;-3.120;2023-09-19T14:17:57;1.80;;;1.30;;
13356;SDS011;6747;56.456;-3.120;2023-09-19T14:20:26;2.50;;;1.30;;
13356;SDS011;6747;56.456;-3.120;2023-09-19T14:22:54;2.58;;;1.35;;
13356;SDS011;6747;56.456;-3.120;2023-09-19T14:25:23;1.90;;;1.45;;
13356;SDS011;6747;56.456;-3.120;2023-09-19T14:27:51;1.38;;;1.27;;
13356;SDS011;6747;56.456;-3.120;2023-09-19T14:30:18;1.90;;;1.23;;
13356;SDS011;6747;56.456;-3.120;2023-09-19T14:32:48;3.13;;;1.33;;
13356;SDS011;6747;56.456;-3.120;2023-09-19T14:35:16;2.28;;;1.30;;
13356;SDS011;6747;56.456;-3.120;2023-09-19T14:37:43;1.95;;;1.30;;
13356;SDS011;6747;56.456;-3.120;2023-09-19T14:40:12;3.03;;;1.23;;
13356;SDS011;6747;56.456;-3.120;2023-09-19T14:42:43;1.38;;;1.25;;
13356;SDS011;6747;56.456;-3.120;2023-09-19T14:45:11;2.10;;;1.42;;
13356;SDS011;6747;56.456;-3.120;2023-09-19T14:47:41;2.13;;;1.30;;
13356;SDS011;6747;56.456;-3.120;2023-09-19T14:50:11;2.53;;;1.85;;
13356;SDS011;6747;56.456;-3.120;2023-09-19T14:52:38;1.40;;;1.30;;
13356;SDS011;6747;56.456;-3.120;2023-09-19T14:55:06;2.03;;;1.65;;
13356;SDS011;6747;56.456;-3.120;2023-09-19T14:57:40;3.17;;;1.35;;
13356;SDS011;6747;56.456;-3.120;2023-09-19T15:00:11;4.15;;;2.03;;
13356;SDS011;6747;56.456;-3.120;2023-09-19T15:02:38;2.83;;;1.67;;
13356;SDS011;6747;56.456;-3.120;2023-09-19T15:05:06;1.52;;;1.40;;
13356;SDS011;6747;56.456;-3.120;2023-09-19T15:07:36;2.13;;;1.40;;
13356;SDS011;6747;56.456;-3.120;2023-09-19T15:10:05;2.70;;;1.90;;
13356;SDS011;6747;56.456;-3.120;2023-09-19T15:12:35;3.67;;;1.60;;
13356;SDS011;6747;56.456;-3.120;2023-09-19T15:15:03;2.05;;;1.30;;
13356;SDS011;6747;56.456;-3.120;2023-09-19T15:17:32;2.38;;;1.50;;
13356;SDS011;6747;56.456;-3.120;2023-09-19T15:19:59;3.97;;;1.50;;
13356;SDS011;6747;56.456;-3.120;2023-09-19T15:22:31;1.70;;;1.23;;
13356;SDS011;6747;56.456;-3.120;2023-09-19T15:25:01;2.03;;;1.35;;
13356;SDS011;6747;56.456;-3.120;2023-09-19T15:27:29;1.33;;;1.20;;